Time;durP1;ratioP1;P1;durP2;ratioP2;P2;SDS_P1;SDS_P2;PMS_P1;PMS_P2;Temp;Humidity;BMP_temperature;BMP_pressure;BME280_temperature;BME280_humidity;BME280_pressure;Samples;Min_cycle;Max_cycle;Signal;HPM_P1;HPM_P2
2023/12/19 00:00:31;;;;;;;22.20;18.30;;;;;;;5.16;76.15;98629.36;106286;1281;25142;-76
2023/12/19 00:03:20;;;;;;;19.00;17.00;;;;;;;5.14;76.23;98622.85;106569;1284;22581;-76
2023/12/19 00:05:49;;;;;;;22.90;18.70;;;;;;;5.12;75.94;98619.20;106342;1278;24270;-76
2023/12/19 00:08:17;;;;;;;21.20;18.80;;;;;;;5.08;76.11;98609.73;106339;1270;23935;-77
2023/12/19 00:10:45;;;;;;;20.60;17.70;;;;;;;5.06;75.97;98606.59;106296;1273;24505;-77
2023/12/19 00:13:13;;;;;;;20.40;15.60;;;;;;;5.02;75.78;98603.67;106514;1261;24002;-76
2023/12/19 00:15:41;;;;;;;15.80;14.10;;;;;;;4.98;75.98;98603.45;106458;1273;26682;-76
2023/12/19 00:18:09;;;;;;;17.60;15.00;;;;;;;4.97;76.02;98608.03;106424;1268;24295;-77
2023/12/19 00:20:37;;;;;;;15.90;14.20;;;;;;;4.98;76.18;98605.91;106293;1277;24281;-78
2023/12/19 00:23:05;;;;;;;18.20;14.70;;;;;;;4.96;76.33;98607.58;106677;1261;25434;-77
2023/12/19 00:25:33;;;;;;;17.00;13.60;;;;;;;4.94;76.00;98614.29;106557;1279;25267;-79
2023/12/19 00:28:00;;;;;;;16.30;14.50;;;;;;;4.89;75.95;98611.69;106328;1273;23926;-78
2023/12/19 00:30:29;;;;;;;17.40;15.20;;;;;;;4.89;75.99;98604.64;106783;1270;23448;-78
2023/12/19 00:32:57;;;;;;;18.40;16.00;;;;;;;4.85;75.95;98602.50;106736;1281;22652;-78
2023/12/19 00:35:25;;;;;;;17.80;15.40;;;;;;;4.81;75.71;98602.55;106619;1280;24360;-78
2023/12/19 00:37:52;;;;;;;15.80;14.10;;;;;;;4.78;75.79;98600.42;106689;1284;23052;-78
2023/12/19 00:40:21;;;;;;;16.20;13.10;;;;;;;4.76;75.57;98608.77;106610;1284;22551;-77
2023/12/19 00:42:49;;;;;;;15.80;14.20;;;;;;;4.74;75.66;98621.23;106735;1283;22568;-77
2023/12/19 00:45:16;;;;;;;16.70;14.60;;;;;;;4.74;75.24;98623.75;106325;1268;22537;-77
2023/12/19 00:47:45;;;;;;;16.30;14.50;;;;;;;4.77;75.26;98629.23;106332;1270;24069;-77
2023/12/19 00:50:16;;;;;;;15.20;13.40;;;;;;;4.78;75.09;98625.73;106332;1268;24232;-78
2023/12/19 00:52:44;;;;;;;13.80;12.00;;;;;;;4.83;75.11;98618.59;106326;1273;24071;-77
2023/12/19 00:55:12;;;;;;;15.90;12.90;;;;;;;4.83;74.98;98609.52;106322;1265;25379;-76
2023/12/19 00:57:40;;;;;;;14.60;12.80;;;;;;;4.84;74.98;98616.79;106204;1282;24355;-76
2023/12/19 01:00:09;;;;;;;15.00;12.30;;;;;;;4.85;74.47;98618.95;106291;1269;23041;-76
2023/12/19 01:02:37;;;;;;;12.40;11.10;;;;;;;4.91;74.74;98616.95;106726;1276;22557;-77
2023/12/19 01:05:05;;;;;;;14.10;11.90;;;;;;;4.89;74.86;98619.08;106552;1267;24352;-77
2023/12/19 01:07:33;;;;;;;13.70;12.20;;;;;;;4.91;74.32;98624.45;106659;1281;25383;-76
2023/12/19 01:10:01;;;;;;;13.50;12.10;;;;;;;4.92;74.59;98606.19;106740;1283;22582;-77
2023/12/19 01:12:29;;;;;;;13.40;12.00;;;;;;;4.91;74.49;98606.34;106363;1283;22543;-77
2023/12/19 01:14:57;;;;;;;14.60;12.90;;;;;;;4.90;74.32;98628.43;106421;1283;24359;-77
2023/12/19 01:17:25;;;;;;;13.50;11.10;;;;;;;4.89;74.31;98625.38;106622;1283;22547;-77
2023/12/19 01:19:53;;;;;;;14.50;12.60;;;;;;;4.88;74.56;98618.79;106407;1280;22574;-77
2023/12/19 01:22:23;;;;;;;12.70;11.40;;;;;;;4.88;74.33;98615.38;106459;1283;25383;-77
2023/12/19 01:24:51;;;;;;;13.90;12.40;;;;;;;4.90;74.47;98614.70;106879;1277;22629;-75
2023/12/19 01:27:19;;;;;;;14.40;12.40;;;;;;;4.93;74.05;98615.70;106310;1283;22537;-77
2023/12/19 01:29:47;;;;;;;14.60;12.60;;;;;;;4.94;74.09;98600.08;106108;1284;22547;-77
2023/12/19 01:32:15;;;;;;;14.30;12.80;;;;;;;4.91;74.08;98593.73;106319;1283;25343;-76
2023/12/19 01:34:43;;;;;;;15.20;13.60;;;;;;;4.89;74.02;98587.94;106272;1284;25671;-76
2023/12/19 01:37:11;;;;;;;16.30;13.60;;;;;;;4.88;74.19;98574.30;106296;1277;25375;-77
2023/12/19 01:39:39;;;;;;;17.20;13.50;;;;;;;4.85;73.97;98572.23;106301;1271;25265;-76
2023/12/19 01:42:07;;;;;;;15.90;13.50;;;;;;;4.81;74.11;98572.11;106355;1262;25431;-77
2023/12/19 01:44:35;;;;;;;15.90;14.10;;;;;;;4.80;74.16;98573.80;106317;1277;22544;-77
2023/12/19 01:47:03;;;;;;;17.50;14.60;;;;;;;4.77;74.25;98561.75;106747;1278;25513;-77
2023/12/19 01:49:31;;;;;;;15.70;13.30;;;;;;;4.73;74.23;98563.41;106636;1277;24318;-76
2023/12/19 01:52:00;;;;;;;14.60;12.90;;;;;;;4.70;74.30;98559.84;106381;1280;22553;-76
2023/12/19 01:54:27;;;;;;;13.80;12.30;;;;;;;4.73;74.14;98559.07;106648;1269;22565;-76
2023/12/19 01:56:55;;;;;;;14.60;12.00;;;;;;;4.73;73.67;98552.46;106187;1283;24231;-78
2023/12/19 01:59:23;;;;;;;14.60;11.20;;;;;;;4.75;73.64;98544.68;106355;1280;25467;-77
2023/12/19 02:01:55;;;;;;;12.60;11.00;;;;;;;4.78;73.79;98552.41;106175;1284;24240;-78
2023/12/19 02:04:22;;;;;;;13.00;10.90;;;;;;;4.81;73.32;98555.66;106481;1265;24273;-78
2023/12/19 02:06:50;;;;;;;13.00;11.00;;;;;;;4.87;72.88;98550.94;106629;1281;22540;-78
2023/12/19 02:09:19;;;;;;;12.90;11.60;;;;;;;4.94;72.62;98555.37;106446;1283;22615;-78
2023/12/19 02:11:47;;;;;;;11.60;10.00;;;;;;;4.98;72.41;98554.47;106676;1279;25499;-78
2023/12/19 02:14:15;;;;;;;10.70;9.40;;;;;;;5.02;71.56;98561.03;106722;1277;26674;-78
2023/12/19 02:16:43;;;;;;;11.40;10.20;;;;;;;5.07;71.78;98559.77;106670;1277;22564;-78
2023/12/19 02:19:13;;;;;;;12.60;10.50;;;;;;;5.11;71.43;98557.42;106413;1280;26551;-78
2023/12/19 02:21:41;;;;;;;12.80;11.00;;;;;;;5.14;71.46;98547.56;106741;1275;24647;-78
2023/12/19 02:24:09;;;;;;;12.60;10.40;;;;;;;5.14;71.47;98556.97;106777;1283;22623;-78
2023/12/19 02:26:38;;;;;;;11.40;10.00;;;;;;;5.15;71.21;98558.88;106759;1277;22552;-77
2023/12/19 02:29:06;;;;;;;10.50;8.80;;;;;;;5.19;70.97;98558.54;106409;1284;24286;-78
2023/12/19 02:31:33;;;;;;;13.00;8.70;;;;;;;5.21;70.76;98549.48;106602;1283;22566;-78
2023/12/19 02:34:01;;;;;;;10.10;8.70;;;;;;;5.23;70.85;98547.85;106761;1283;22481;-77
2023/12/19 02:36:29;;;;;;;10.30;9.00;;;;;;;5.26;70.85;98547.40;106441;1276;22557;-78
2023/12/19 02:38:57;;;;;;;10.20;9.10;;;;;;;5.27;71.02;98553.25;106617;1283;24251;-78
2023/12/19 02:41:25;;;;;;;13.60;9.80;;;;;;;5.28;70.45;98548.33;106735;1283;22543;-78
2023/12/19 02:43:53;;;;;;;10.80;9.70;;;;;;;5.27;70.72;98542.02;106710;1283;22547;-78
2023/12/19 02:46:23;;;;;;;11.90;10.40;;;;;;;5.28;70.63;98539.41;106773;1271;24271;-77
2023/12/19 02:48:51;;;;;;;13.00;10.00;;;;;;;5.29;70.58;98534.98;106601;1274;25414;-78
2023/12/19 02:51:20;;;;;;;11.20;9.70;;;;;;;5.31;70.56;98532.88;106665;1277;22672;-78
2023/12/19 02:53:48;;;;;;;11.20;9.50;;;;;;;5.32;69.83;98533.31;106641;1270;24435;-78
2023/12/19 02:56:16;;;;;;;11.40;9.50;;;;;;;5.33;70.15;98531.73;106742;1268;22647;-77
2023/12/19 02:58:44;;;;;;;11.20;8.70;;;;;;;5.35;69.45;98530.89;106739;1276;22624;-77
2023/12/19 03:01:12;;;;;;;11.00;9.60;;;;;;;5.36;69.77;98534.69;106277;1283;22545;-77
2023/12/19 03:03:42;;;;;;;10.90;9.80;;;;;;;5.37;69.79;98534.08;106733;1265;22611;-75
2023/12/19 03:06:13;;;;;;;9.20;8.20;;;;;;;5.40;69.30;98533.79;106426;1277;22564;-76
2023/12/19 03:08:45;;;;;;;9.20;8.00;;;;;;;5.45;69.20;98536.46;106312;1283;22570;-77
2023/12/19 03:11:14;;;;;;;10.50;8.90;;;;;;;5.48;69.12;98542.02;106461;1283;22547;-77
2023/12/19 03:13:42;;;;;;;10.70;9.30;;;;;;;5.52;68.86;98526.81;106358;1268;22543;-77
2023/12/19 03:16:10;;;;;;;9.60;8.50;;;;;;;5.55;68.95;98523.80;106202;1271;24275;-77
2023/12/19 03:18:38;;;;;;;10.50;8.70;;;;;;;5.56;68.93;98525.19;106671;1269;22604;-76
2023/12/19 03:21:08;;;;;;;9.50;7.50;;;;;;;5.57;68.74;98514.48;106530;1283;25249;-75
2023/12/19 03:23:36;;;;;;;11.10;9.00;;;;;;;5.58;68.90;98502.39;106328;1268;22532;-77
2023/12/19 03:26:04;;;;;;;9.10;7.70;;;;;;;5.62;68.39;98493.94;106327;1272;22758;-77
2023/12/19 03:28:32;;;;;;;10.30;9.20;;;;;;;5.66;68.42;98486.77;106118;1284;25317;-76
2023/12/19 03:31:00;;;;;;;12.30;8.40;;;;;;;5.69;68.20;98487.20;106292;1284;25352;-76
2023/12/19 03:33:28;;;;;;;9.40;8.40;;;;;;;5.70;68.15;98484.22;106430;1273;22691;-76
2023/12/19 03:35:56;;;;;;;10.20;8.50;;;;;;;5.70;68.29;98475.46;106287;1271;24231;-77
2023/12/19 03:38:24;;;;;;;9.60;8.70;;;;;;;5.69;68.25;98477.54;106385;1277;24268;-77
2023/12/19 03:40:52;;;;;;;9.50;8.60;;;;;;;5.71;67.53;98475.80;106640;1283;22536;-77
2023/12/19 03:43:20;;;;;;;9.00;8.10;;;;;;;5.74;67.08;98475.66;106329;1268;23379;-77
2023/12/19 03:45:48;;;;;;;8.10;7.20;;;;;;;5.79;66.79;98480.19;106327;1283;24073;-75
2023/12/19 03:48:16;;;;;;;8.60;7.70;;;;;;;5.85;66.30;98487.69;106326;1271;22579;-77
2023/12/19 03:50:45;;;;;;;10.00;8.00;;;;;;;5.90;66.17;98486.88;106122;1283;22537;-77
2023/12/19 03:53:12;;;;;;;8.30;7.50;;;;;;;5.95;66.22;98491.34;106283;1283;22544;-78
2023/12/19 03:55:40;;;;;;;8.00;7.20;;;;;;;5.97;65.73;98497.78;106243;1268;22553;-78
2023/12/19 03:58:08;;;;;;;8.90;7.40;;;;;;;6.00;65.59;98506.58;106707;1282;22670;-78
2023/12/19 04:00:37;;;;;;;7.80;6.80;;;;;;;6.04;65.78;98509.83;106767;1283;22808;-77
2023/12/19 04:03:05;;;;;;;8.00;7.20;;;;;;;6.08;65.46;98507.88;106406;1283;23069;-77
2023/12/19 04:05:33;;;;;;;8.00;6.90;;;;;;;6.12;65.34;98487.86;106499;1269;22683;-77
2023/12/19 04:08:01;;;;;;;7.20;6.40;;;;;;;6.14;65.24;98478.13;106405;1270;25436;-76
2023/12/19 04:11:20;;;;;;;10.30;7.80;;;;;;;6.16;65.15;98474.88;106427;1276;22547;-76
2023/12/19 04:13:47;;;;;;;8.80;7.60;;;;;;;6.17;65.57;98488.42;106476;1276;22657;-78
2023/12/19 04:16:15;;;;;;;7.20;6.40;;;;;;;6.19;65.47;98494.83;106360;1283;24243;-76
2023/12/19 04:18:43;;;;;;;7.50;6.70;;;;;;;6.22;64.89;98496.38;106320;1271;23540;-76
2023/12/19 04:21:11;;;;;;;7.80;6.60;;;;;;;6.24;64.74;98497.21;106378;1283;25393;-76
2023/12/19 04:23:39;;;;;;;8.40;6.60;;;;;;;6.23;65.32;98496.39;106312;1271;22526;-76
2023/12/19 04:26:07;;;;;;;8.20;6.40;;;;;;;6.22;65.10;98486.55;106331;1271;25432;-77
2023/12/19 04:28:35;;;;;;;8.60;6.90;;;;;;;6.23;64.98;98470.11;106691;1277;24338;-77
2023/12/19 04:31:03;;;;;;;10.60;7.60;;;;;;;6.25;64.91;98457.60;106763;1283;22658;-77
2023/12/19 04:33:32;;;;;;;11.30;7.30;;;;;;;6.26;64.76;98442.67;106789;1268;25489;-77
2023/12/19 04:36:01;;;;;;;8.90;6.40;;;;;;;6.27;64.57;98443.11;106497;1283;25516;-77
2023/12/19 04:38:29;;;;;;;7.40;6.10;;;;;;;6.28;64.26;98457.14;106352;1274;22569;-77
2023/12/19 04:40:56;;;;;;;9.50;6.10;;;;;;;6.31;64.04;98463.17;106369;1283;22558;-77
2023/12/19 04:43:24;;;;;;;6.70;6.00;;;;;;;6.32;63.95;98464.30;106844;1283;25367;-78
2023/12/19 04:45:52;;;;;;;7.80;7.00;;;;;;;6.32;64.26;98466.77;106886;1268;23447;-77
2023/12/19 04:48:20;;;;;;;6.90;5.90;;;;;;;6.32;64.19;98461.84;106374;1281;24350;-77
2023/12/19 04:50:48;;;;;;;9.70;6.70;;;;;;;6.32;63.84;98461.46;106371;1268;22536;-76
2023/12/19 04:53:16;;;;;;;7.50;6.20;;;;;;;6.33;63.83;98462.86;106318;1268;24418;-76
2023/12/19 04:55:44;;;;;;;8.20;6.30;;;;;;;6.36;63.55;98464.64;106388;1279;22545;-79
2023/12/19 04:58:12;;;;;;;7.30;6.30;;;;;;;6.36;63.42;98458.77;106429;1268;22543;-75
2023/12/19 05:00:41;;;;;;;9.20;6.50;;;;;;;6.37;63.27;98469.73;106349;1274;24296;-77
2023/12/19 05:03:09;;;;;;;7.80;6.70;;;;;;;6.37;63.32;98470.54;106441;1280;25432;-77
2023/12/19 05:05:38;;;;;;;6.70;6.00;;;;;;;6.37;62.89;98466.04;106327;1276;24268;-78
2023/12/19 05:08:06;;;;;;;10.30;6.90;;;;;;;6.35;62.48;98465.55;106414;1283;22537;-77
2023/12/19 05:10:34;;;;;;;8.10;6.10;;;;;;;6.40;62.46;98470.23;106790;1277;24359;-78
2023/12/19 05:13:03;;;;;;;7.10;6.40;;;;;;;6.41;62.60;98470.56;106741;1283;22536;-76
2023/12/19 05:15:32;;;;;;;7.20;6.30;;;;;;;6.40;62.16;98471.15;106356;1283;22547;-77
2023/12/19 05:18:00;;;;;;;7.20;6.30;;;;;;;6.45;62.11;98467.92;106298;1283;25239;-77
2023/12/19 05:20:28;;;;;;;7.90;6.60;;;;;;;6.45;62.15;98467.29;106221;1273;22622;-77
2023/12/19 05:22:56;;;;;;;8.30;6.10;;;;;;;6.45;62.13;98470.22;106299;1273;22908;-78
2023/12/19 05:25:24;;;;;;;10.10;7.30;;;;;;;6.42;62.44;98472.86;106277;1281;25619;-77
2023/12/19 05:27:52;;;;;;;9.50;6.80;;;;;;;6.38;61.92;98483.98;106772;1276;25261;-77
2023/12/19 05:30:20;;;;;;;8.30;6.50;;;;;;;6.36;62.02;98488.36;106366;1270;25271;-77
2023/12/19 05:32:49;;;;;;;9.90;6.60;;;;;;;6.32;62.16;98494.75;106811;1276;23904;-77
2023/12/19 05:35:17;;;;;;;8.70;7.00;;;;;;;6.29;62.11;98497.46;106760;1271;22726;-76
2023/12/19 05:37:45;;;;;;;9.20;7.30;;;;;;;6.26;61.73;98483.36;106291;1283;23623;-77
2023/12/19 05:40:13;;;;;;;9.60;7.10;;;;;;;6.24;61.88;98478.10;106440;1269;24463;-77
2023/12/19 05:42:41;;;;;;;8.10;6.80;;;;;;;6.22;61.79;98471.23;106360;1283;23161;-77
2023/12/19 05:45:09;;;;;;;7.80;6.90;;;;;;;6.20;62.01;98468.23;106314;1284;25263;-76
2023/12/19 05:47:37;;;;;;;8.00;6.80;;;;;;;6.18;62.15;98471.58;106250;1271;22534;-76
2023/12/19 05:50:06;;;;;;;10.30;6.70;;;;;;;6.17;61.86;98470.11;106327;1277;25563;-77
2023/12/19 05:52:34;;;;;;;9.40;7.20;;;;;;;6.17;61.36;98472.68;106302;1269;25448;-76
2023/12/19 05:55:02;;;;;;;8.10;7.10;;;;;;;6.17;61.68;98467.13;106288;1271;24252;-76
2023/12/19 05:57:30;;;;;;;7.50;6.70;;;;;;;6.17;61.48;98470.27;106326;1269;25744;-76
2023/12/19 06:00:00;;;;;;;8.50;7.20;;;;;;;6.13;61.26;98475.55;106303;1271;22550;-77
2023/12/19 06:02:28;;;;;;;10.90;7.80;;;;;;;6.17;61.31;98475.80;106422;1271;25431;-77
2023/12/19 06:05:00;;;;;;;9.00;6.60;;;;;;;6.19;61.30;98468.52;106731;1268;25515;-77
2023/12/19 06:07:27;;;;;;;9.40;7.50;;;;;;;6.17;61.45;98462.90;106473;1281;22659;-77
2023/12/19 06:09:55;;;;;;;11.90;8.10;;;;;;;6.15;61.55;98458.77;106419;1269;22682;-77
2023/12/19 06:12:23;;;;;;;9.10;7.30;;;;;;;6.14;61.10;98460.09;106271;1283;22556;-77
2023/12/19 06:14:51;;;;;;;8.50;7.40;;;;;;;6.13;61.23;98453.66;106347;1278;25432;-77
2023/12/19 06:17:19;;;;;;;10.50;8.20;;;;;;;6.16;60.98;98445.98;106690;1276;24359;-77
2023/12/19 06:19:47;;;;;;;9.00;8.10;;;;;;;6.18;61.36;98443.20;106698;1271;22555;-77
2023/12/19 06:22:15;;;;;;;11.50;8.00;;;;;;;6.16;61.51;98440.64;106290;1284;24244;-77
2023/12/19 06:24:45;;;;;;;10.10;9.10;;;;;;;6.14;61.46;98435.48;106687;1279;22636;-78
2023/12/19 06:27:15;;;;;;;9.10;8.20;;;;;;;6.14;61.25;98433.94;106409;1278;22561;-76
2023/12/19 06:29:44;;;;;;;11.80;9.30;;;;;;;6.16;61.33;98429.40;106406;1271;24277;-77
2023/12/19 06:32:12;;;;;;;9.60;7.40;;;;;;;6.20;60.79;98431.83;106798;1271;22629;-77
2023/12/19 06:34:40;;;;;;;9.80;8.40;;;;;;;6.24;60.85;98425.60;106378;1280;22577;-78
2023/12/19 06:37:08;;;;;;;11.70;10.50;;;;;;;6.29;60.47;98421.23;106358;1277;22770;-78
2023/12/19 06:39:36;;;;;;;12.90;10.50;;;;;;;6.32;60.85;98420.79;106304;1281;22661;-77
2023/12/19 06:42:05;;;;;;;11.70;9.20;;;;;;;6.34;60.39;98418.97;106616;1284;22607;-77
2023/12/19 06:44:33;;;;;;;10.50;9.30;;;;;;;6.37;60.88;98419.95;106376;1283;22648;-78
2023/12/19 06:47:01;;;;;;;8.90;7.10;;;;;;;6.39;60.35;98419.59;106441;1281;22564;-77
2023/12/19 06:49:29;;;;;;;11.00;8.10;;;;;;;6.46;59.52;98426.77;106735;1277;22529;-76
2023/12/19 06:51:57;;;;;;;8.80;7.60;;;;;;;6.52;59.79;98428.02;106381;1283;22673;-78
2023/12/19 06:54:25;;;;;;;8.90;8.00;;;;;;;6.55;59.59;98432.32;106284;1283;23323;-76
2023/12/19 06:56:53;;;;;;;9.50;7.90;;;;;;;6.59;59.54;98434.87;106243;1284;24216;-78
2023/12/19 06:59:21;;;;;;;9.00;7.60;;;;;;;6.63;59.37;98439.81;106237;1276;22554;-77
2023/12/19 07:01:49;;;;;;;8.90;7.80;;;;;;;6.68;59.36;98441.88;106660;1281;22664;-77
2023/12/19 07:04:18;;;;;;;10.70;8.20;;;;;;;6.72;58.90;98447.58;106721;1273;25432;-77
2023/12/19 07:06:46;;;;;;;9.30;8.40;;;;;;;6.78;58.24;98436.36;106777;1273;22773;-78
2023/12/19 07:09:16;;;;;;;11.20;9.20;;;;;;;6.82;58.76;98439.38;106853;1283;24370;-76
2023/12/19 07:11:44;;;;;;;13.80;12.00;;;;;;;6.85;58.28;98440.61;106384;1268;22771;-77
2023/12/19 07:14:12;;;;;;;15.90;13.30;;;;;;;6.85;59.26;98439.82;106422;1283;26085;-77
2023/12/19 07:16:40;;;;;;;14.10;11.30;;;;;;;6.85;58.78;98444.75;106404;1268;24788;-78
2023/12/19 07:19:08;;;;;;;12.00;8.90;;;;;;;6.89;57.93;98438.55;106280;1277;22656;-77
2023/12/19 07:21:37;;;;;;;10.00;8.40;;;;;;;6.90;58.34;98430.41;106633;1277;22635;-77
2023/12/19 07:24:05;;;;;;;13.60;9.20;;;;;;;6.91;58.57;98426.35;106584;1284;23164;-78
2023/12/19 07:26:33;;;;;;;9.80;8.00;;;;;;;6.91;58.10;98430.52;106610;1283;25731;-79
2023/12/19 07:29:02;;;;;;;13.80;9.00;;;;;;;6.90;57.82;98432.23;106372;1270;22543;-78
2023/12/19 07:31:33;;;;;;;22.50;13.30;;;;;;;6.90;57.77;98424.09;106676;1277;25324;-77
2023/12/19 07:34:06;;;;;;;20.30;12.50;;;;;;;6.87;58.27;98421.89;106670;1283;22678;-77
2023/12/19 07:36:35;;;;;;;26.60;17.70;;;;;;;6.85;58.45;98424.28;106287;1280;22645;-77
2023/12/19 07:39:04;;;;;;;31.70;23.30;;;;;;;6.85;58.59;98426.36;106265;1269;23033;-77
2023/12/19 07:41:33;;;;;;;23.60;14.80;;;;;;;6.85;58.49;98420.20;106309;1272;25276;-77
2023/12/19 07:44:02;;;;;;;32.70;25.00;;;;;;;6.84;58.20;98411.64;106318;1269;22543;-77
2023/12/19 07:46:30;;;;;;;20.70;13.80;;;;;;;6.87;58.21;98409.34;106305;1271;22533;-76
2023/12/19 07:48:58;;;;;;;16.70;12.00;;;;;;;6.88;58.18;98406.48;106311;1271;25392;-77
2023/12/19 07:51:26;;;;;;;10.50;7.80;;;;;;;6.89;58.09;98414.23;106376;1271;22533;-77
2023/12/19 07:53:57;;;;;;;13.10;8.90;;;;;;;6.89;57.73;98415.94;106498;1281;25276;-76
2023/12/19 07:56:25;;;;;;;13.30;9.90;;;;;;;6.89;57.97;98410.95;106327;1271;25347;-76
2023/12/19 07:58:53;;;;;;;11.00;7.40;;;;;;;6.91;58.08;98411.02;106368;1278;24053;-76
2023/12/19 08:01:21;;;;;;;18.10;10.60;;;;;;;6.92;57.53;98414.19;106249;1271;24145;-76
2023/12/19 08:03:49;;;;;;;15.00;11.30;;;;;;;6.96;57.72;98413.50;106190;1268;25249;-77
2023/12/19 08:06:17;;;;;;;23.40;13.90;;;;;;;6.99;57.57;98409.06;106219;1274;25615;-77
2023/12/19 08:08:49;;;;;;;15.90;10.50;;;;;;;7.01;57.83;98407.30;106291;1268;25441;-78
2023/12/19 08:11:18;;;;;;;13.30;9.10;;;;;;;7.07;57.28;98416.80;106492;1275;23025;-78
2023/12/19 08:13:48;;;;;;;10.20;6.90;;;;;;;7.12;57.46;98409.74;106299;1271;22563;-79
2023/12/19 08:16:16;;;;;;;12.10;7.80;;;;;;;7.19;56.78;98412.50;106330;1269;22698;-79
2023/12/19 08:18:44;;;;;;;10.60;7.50;;;;;;;7.24;56.92;98413.43;106320;1283;22544;-78
2023/12/19 08:21:13;;;;;;;8.60;7.40;;;;;;;7.31;56.79;98416.34;106687;1274;24385;-77
2023/12/19 08:23:42;;;;;;;11.00;8.30;;;;;;;7.37;56.11;98412.44;106735;1271;22549;-77
2023/12/19 08:26:10;;;;;;;9.10;7.10;;;;;;;7.46;56.01;98408.17;106683;1281;22676;-78
2023/12/19 08:28:38;;;;;;;7.50;6.70;;;;;;;7.54;56.47;98406.73;106642;1277;22530;-78
2023/12/19 08:31:06;;;;;;;9.00;7.00;;;;;;;7.62;56.16;98404.83;106719;1277;22546;-78
2023/12/19 08:33:35;;;;;;;8.70;6.90;;;;;;;7.71;55.82;98398.21;106736;1271;22545;-78
2023/12/19 08:36:05;;;;;;;7.90;6.40;;;;;;;7.81;56.43;98396.73;106698;1271;25954;-78
2023/12/19 08:38:33;;;;;;;13.10;9.00;;;;;;;7.90;55.76;98402.31;106694;1272;25122;-78
2023/12/19 08:41:01;;;;;;;13.20;7.60;;;;;;;7.99;54.61;98404.39;106865;1271;25322;-78
2023/12/19 08:43:32;;;;;;;10.30;7.70;;;;;;;8.07;53.87;98393.98;106689;1284;24357;-78
2023/12/19 08:46:00;;;;;;;9.60;7.10;;;;;;;8.14;54.77;98384.41;106692;1283;23136;-78
2023/12/19 08:48:28;;;;;;;8.20;5.90;;;;;;;8.21;54.33;98381.13;106358;1283;24254;-77
2023/12/19 08:51:00;;;;;;;8.80;6.90;;;;;;;8.26;54.07;98375.05;106923;1283;22629;-78
2023/12/19 08:53:28;;;;;;;8.90;7.20;;;;;;;8.30;54.41;98371.50;106894;1283;22502;-78
2023/12/19 08:55:57;;;;;;;9.30;6.70;;;;;;;8.32;53.90;98369.45;107024;1262;26045;-77
2023/12/19 08:58:25;;;;;;;8.20;6.80;;;;;;;8.34;53.44;98368.91;106308;1269;24225;-78
2023/12/19 09:00:54;;;;;;;11.40;7.00;;;;;;;8.34;53.76;98356.39;106427;1270;24377;-76
2023/12/19 09:03:23;;;;;;;8.80;6.90;;;;;;;8.36;54.06;98356.24;106812;1281;22536;-77
2023/12/19 09:05:51;;;;;;;9.90;8.10;;;;;;;8.37;52.90;98353.80;106791;1271;23340;-77
2023/12/19 09:08:19;;;;;;;11.60;8.90;;;;;;;8.38;52.87;98348.38;106461;1261;22558;-77
2023/12/19 09:10:47;;;;;;;7.80;6.20;;;;;;;8.39;53.23;98344.61;106638;1282;22539;-77
2023/12/19 09:13:16;;;;;;;10.10;7.40;;;;;;;8.43;51.98;98344.27;106655;1272;22624;-77
2023/12/19 09:15:45;;;;;;;8.40;5.90;;;;;;;8.47;52.55;98340.88;106619;1273;22603;-78
2023/12/19 09:18:13;;;;;;;9.20;6.90;;;;;;;8.50;52.76;98326.36;106734;1278;22548;-78
2023/12/19 09:20:41;;;;;;;11.40;7.50;;;;;;;8.54;52.69;98319.99;106766;1272;24262;-79
2023/12/19 09:23:09;;;;;;;9.90;6.50;;;;;;;8.57;53.31;98313.77;106782;1280;22544;-77
2023/12/19 09:25:37;;;;;;;9.70;6.80;;;;;;;8.57;52.55;98308.87;106350;1283;22549;-77
2023/12/19 09:28:05;;;;;;;9.40;6.90;;;;;;;8.57;51.98;98314.39;106236;1262;22772;-77
2023/12/19 09:30:33;;;;;;;8.60;6.10;;;;;;;8.55;52.16;98310.77;106555;1273;22537;-77
2023/12/19 09:33:02;;;;;;;8.70;6.70;;;;;;;8.53;52.66;98312.65;106320;1274;25600;-77
2023/12/19 09:35:30;;;;;;;12.60;9.90;;;;;;;8.53;52.19;98306.63;106260;1277;22627;-77
2023/12/19 09:38:01;;;;;;;8.60;7.20;;;;;;;8.52;52.43;98294.02;106318;1281;24403;-78
2023/12/19 09:40:30;;;;;;;8.50;7.00;;;;;;;8.51;52.66;98291.06;106807;1277;22663;-78
2023/12/19 09:43:02;;;;;;;9.90;7.50;;;;;;;8.51;52.32;98291.77;106665;1270;22703;-78
2023/12/19 09:45:30;;;;;;;14.40;12.70;;;;;;;8.52;52.31;98279.89;106703;1283;22549;-78
2023/12/19 09:48:00;;;;;;;13.40;12.00;;;;;;;8.56;52.22;98274.07;106674;1284;24279;-77
2023/12/19 09:50:29;;;;;;;12.50;11.20;;;;;;;8.56;52.35;98266.44;106398;1277;22715;-77
2023/12/19 09:52:57;;;;;;;9.00;6.70;;;;;;;8.63;52.80;98270.33;106642;1273;140757;-78
2023/12/19 09:55:28;;;;;;;8.30;7.00;;;;;;;8.70;51.71;98274.37;107084;1284;26133;-77
2023/12/19 09:58:00;;;;;;;9.70;7.70;;;;;;;8.77;51.41;98271.44;106408;1267;22544;-78
2023/12/19 10:00:32;;;;;;;11.00;8.60;;;;;;;8.80;51.48;98273.30;107016;1271;22547;-79
2023/12/19 10:03:02;;;;;;;13.20;9.70;;;;;;;8.82;51.07;98277.10;106709;1284;22543;-78
2023/12/19 10:05:30;;;;;;;12.00;9.10;;;;;;;8.80;51.03;98279.15;106326;1269;22669;-77
2023/12/19 10:08:00;;;;;;;9.60;7.90;;;;;;;8.78;51.44;98275.89;106329;1271;25447;-77
2023/12/19 10:10:51;;;;;;;9.30;8.30;;;;;;;8.76;51.10;98272.88;106365;1284;24204;-77
2023/12/19 10:13:30;;;;;;;8.30;6.80;;;;;;;8.76;51.32;98270.20;106435;1281;22645;-77
2023/12/19 10:16:06;;;;;;;12.80;8.80;;;;;;;8.74;51.12;98269.04;106764;1278;24272;-79
2023/12/19 10:18:56;;;;;;;11.50;7.80;;;;;;;8.75;51.45;98260.70;106871;1268;25359;-78
2023/12/19 10:21:28;;;;;;;11.40;6.90;;;;;;;8.82;50.87;98253.83;106933;1278;25266;-79
2023/12/19 10:24:11;;;;;;;9.30;7.80;;;;;;;8.91;50.60;98244.27;106723;1281;24274;-78
2023/12/19 10:26:40;;;;;;;11.60;8.80;;;;;;;9.00;50.47;98233.92;106845;1276;23396;-78
2023/12/19 10:29:11;;;;;;;8.60;6.70;;;;;;;9.08;50.26;98242.05;106257;1284;22551;-80
2023/12/19 10:31:39;;;;;;;12.50;10.80;;;;;;;9.20;50.23;98225.98;106316;1269;25439;-79
2023/12/19 10:34:18;;;;;;;10.90;7.60;;;;;;;9.30;50.33;98214.88;106812;1270;24411;-79
2023/12/19 10:36:46;;;;;;;6.40;5.00;;;;;;;9.42;50.16;98211.27;106858;1273;24208;-79
2023/12/19 10:39:19;;;;;;;6.60;5.60;;;;;;;9.53;49.70;98206.38;106784;1280;22554;-78
2023/12/19 10:41:47;;;;;;;9.10;5.90;;;;;;;9.62;49.91;98198.91;106390;1281;25310;-79
2023/12/19 10:44:17;;;;;;;8.10;5.70;;;;;;;9.71;49.02;98199.26;106735;1267;24303;-78
2023/12/19 10:46:47;;;;;;;7.70;5.80;;;;;;;9.81;49.05;98195.49;106635;1271;23135;-78
2023/12/19 10:49:15;;;;;;;16.90;11.60;;;;;;;9.92;48.82;98193.64;106797;1281;22554;-78
2023/12/19 10:51:50;;;;;;;6.50;5.30;;;;;;;10.03;48.81;98191.15;106709;1271;22738;-78
2023/12/19 10:54:24;;;;;;;13.80;7.70;;;;;;;10.14;47.77;98185.46;106312;1278;22550;-77
2023/12/19 10:57:06;;;;;;;8.70;5.80;;;;;;;10.22;47.52;98176.96;106290;1266;24481;-77
2023/12/19 10:59:45;;;;;;;8.60;6.00;;;;;;;10.27;47.43;98175.31;106266;1284;25448;-77
2023/12/19 11:02:25;;;;;;;6.50;5.60;;;;;;;10.25;47.46;98167.55;106242;1276;22540;-77
2023/12/19 11:05:14;;;;;;;9.50;5.60;;;;;;;10.25;47.36;98152.46;106305;1269;23426;-78
2023/12/19 11:07:44;;;;;;;13.60;9.00;;;;;;;10.21;47.29;98153.23;106309;1275;24380;-77
2023/12/19 11:10:17;;;;;;;9.20;6.30;;;;;;;10.14;47.25;98152.94;106284;1284;25432;-77
2023/12/19 11:12:47;;;;;;;8.00;6.20;;;;;;;10.08;47.17;98144.45;106270;1284;22562;-78
2023/12/19 11:15:16;;;;;;;8.90;5.70;;;;;;;10.05;47.48;98137.98;106371;1281;25396;-78
2023/12/19 11:17:53;;;;;;;10.80;6.50;;;;;;;10.08;47.30;98140.53;106274;1273;22544;-77
2023/12/19 11:20:30;;;;;;;9.10;6.40;;;;;;;10.24;47.23;98131.55;106294;1284;22599;-77
2023/12/19 11:23:08;;;;;;;8.10;5.30;;;;;;;10.64;47.22;98128.08;106661;1281;22530;-78
2023/12/19 11:25:57;;;;;;;6.90;5.40;;;;;;;10.76;47.01;98119.59;106615;1274;23917;-79
2023/12/19 11:28:26;;;;;;;7.70;5.40;;;;;;;11.15;46.90;98114.77;107137;1271;22648;-78
2023/12/19 11:30:53;;;;;;;9.60;6.20;;;;;;;11.23;46.27;98108.96;106672;1282;22572;-79
2023/12/19 11:33:29;;;;;;;7.50;5.50;;;;;;;11.18;46.22;98106.73;106675;1280;24288;-79
2023/12/19 11:36:11;;;;;;;8.30;6.00;;;;;;;11.24;46.01;98098.91;106605;1283;26739;-78